sensor_id;sensor_type;location;lat;lon;timestamp;pressure;altitude;pressure_sealevel;temperature;humidity
57102;BME280;42982;54.558;18.508;2023-11-19T08:36:59;100639.84;;;0.43;87.08
57102;BME280;42982;54.558;18.508;2023-11-19T08:38:01;100626.63;;;0.43;86.78
57102;BME280;42982;54.558;18.508;2023-11-19T08:39:06;100624.22;;;0.41;86.95
57102;BME280;42982;54.558;18.508;2023-11-19T08:40:10;100632.53;;;0.45;87.09
57102;BME280;42982;54.558;18.508;2023-11-19T08:41:16;100619.13;;;0.40;86.69
57102;BME280;42982;54.558;18.508;2023-11-19T08:42:24;100618.28;;;0.46;86.65
57102;BME280;42982;54.558;18.508;2023-11-19T08:43:26;100620.91;;;0.46;86.88
57102;BME280;42982;54.558;18.508;2023-11-19T08:44:27;100629.47;;;0.48;86.96
57102;BME280;42982;54.558;18.508;2023-11-19T08:45:28;100625.00;;;0.49;86.92
57102;BME280;42982;54.558;18.508;2023-11-19T08:46:30;100623.16;;;0.49;86.58
57102;BME280;42982;54.558;18.508;2023-11-19T08:47:32;100612.94;;;0.53;86.70
57102;BME280;42982;54.558;18.508;2023-11-19T08:48:34;100616.22;;;0.55;86.72
57102;BME280;42982;54.558;18.508;2023-11-19T08:49:40;100611.72;;;0.55;86.58
57102;BME280;42982;54.558;18.508;2023-11-19T08:50:44;100612.13;;;0.59;86.53
57102;BME280;42982;54.558;18.508;2023-11-19T08:51:48;100615.38;;;0.61;86.53
57102;BME280;42982;54.558;18.508;2023-11-19T08:52:50;100617.78;;;0.62;86.82
57102;BME280;42982;54.558;18.508;2023-11-19T08:53:54;100612.06;;;0.65;86.79
57102;BME280;42982;54.558;18.508;2023-11-19T08:54:59;100616.94;;;0.68;86.53
57102;BME280;42982;54.558;18.508;2023-11-19T08:56:03;100602.09;;;0.67;86.62
57102;BME280;42982;54.558;18.508;2023-11-19T08:57:07;100610.22;;;0.73;86.90
57102;BME280;42982;54.558;18.508;2023-11-19T08:58:09;100610.22;;;0.73;86.71
57102;BME280;42982;54.558;18.508;2023-11-19T08:59:11;100619.34;;;0.77;86.51
57102;BME280;42982;54.558;18.508;2023-11-19T09:00:13;100615.47;;;0.79;86.78
57102;BME280;42982;54.558;18.508;2023-11-19T09:01:19;100608.13;;;0.81;86.73
57102;BME280;42982;54.558;18.508;2023-11-19T09:02:24;100614.81;;;0.84;86.74
57102;BME280;42982;54.558;18.508;2023-11-19T09:03:26;100611.97;;;0.85;86.53
57102;BME280;42982;54.558;18.508;2023-11-19T09:04:30;100610.72;;;0.88;86.17
57102;BME280;42982;54.558;18.508;2023-11-19T09:05:32;100598.91;;;0.90;86.48
57102;BME280;42982;54.558;18.508;2023-11-19T09:06:36;100605.63;;;0.93;86.49
57102;BME280;42982;54.558;18.508;2023-11-19T09:07:38;100611.50;;;0.95;86.58
57102;BME280;42982;54.558;18.508;2023-11-19T10:49:19;100434.41;;;0.62;86.05
57102;BME280;42982;54.558;18.508;2023-11-19T10:50:21;100435.81;;;0.64;86.35
57102;BME280;42982;54.558;18.508;2023-11-19T18:25:26;100012.69;;;4.93;100.00
57102;BME280;42982;54.558;18.508;2023-11-19T18:26:32;100014.22;;;5.58;100.00
57102;BME280;42982;54.558;18.508;2023-11-19T18:27:34;100017.41;;;6.18;100.00
57102;BME280;42982;54.558;18.508;2023-11-19T18:28:35;100017.78;;;6.72;100.00
57102;BME280;42982;54.558;18.508;2023-11-19T18:29:37;100017.25;;;7.27;100.00
57102;BME280;42982;54.558;18.508;2023-11-19T18:30:41;100015.53;;;7.77;100.00
57102;BME280;42982;54.558;18.508;2023-11-19T18:31:43;100012.22;;;8.05;100.00
57102;BME280;42982;54.558;18.508;2023-11-19T18:32:45;100016.34;;;8.42;100.00
57102;BME280;42982;54.558;18.508;2023-11-19T18:33:47;100000.78;;;8.84;100.00
57102;BME280;42982;54.558;18.508;2023-11-19T18:34:49;100013.03;;;9.24;100.00
57102;BME280;42982;54.558;18.508;2023-11-19T18:35:51;99998.16;;;9.61;100.00
57102;BME280;42982;54.558;18.508;2023-11-19T18:36:53;100003.63;;;9.98;100.00
57102;BME280;42982;54.558;18.508;2023-11-19T18:37:54;100008.84;;;10.33;100.00
57102;BME280;42982;54.558;18.508;2023-11-19T18:38:56;99999.75;;;10.66;100.00
57102;BME280;42982;54.558;18.508;2023-11-19T18:39:57;100005.94;;;11.00;100.00
57102;BME280;42982;54.558;18.508;2023-11-19T18:40:59;100001.63;;;11.31;100.00
57102;BME280;42982;54.558;18.508;2023-11-19T18:42:00;100002.06;;;11.52;100.00
57102;BME280;42982;54.558;18.508;2023-11-19T18:43:02;99998.09;;;11.64;100.00
57102;BME280;42982;54.558;18.508;2023-11-19T18:44:04;99996.69;;;11.94;100.00
57102;BME280;42982;54.558;18.508;2023-11-19T18:45:09;99993.88;;;12.26;100.00
57102;BME280;42982;54.558;18.508;2023-11-19T18:46:12;99997.47;;;12.58;100.00
57102;BME280;42982;54.558;18.508;2023-11-19T18:47:14;100000.53;;;12.88;100.00
57102;BME280;42982;54.558;18.508;2023-11-19T18:48:16;100003.09;;;13.15;100.00
57102;BME280;42982;54.558;18.508;2023-11-19T18:49:19;99995.63;;;13.43;100.00
57102;BME280;42982;54.558;18.508;2023-11-19T18:50:21;100006.53;;;13.70;100.00
57102;BME280;42982;54.558;18.508;2023-11-19T18:51:24;100004.69;;;13.96;100.00
57102;BME280;42982;54.558;18.508;2023-11-19T18:52:25;100005.06;;;14.21;100.00
57102;BME280;42982;54.558;18.508;2023-11-19T18:53:29;100007.00;;;14.46;100.00
57102;BME280;42982;54.558;18.508;2023-11-19T18:54:31;100001.16;;;14.70;100.00
57102;BME280;42982;54.558;18.508;2023-11-19T18:55:33;100004.47;;;14.93;99.33
57102;BME280;42982;54.558;18.508;2023-11-19T18:56:35;100008.09;;;15.15;97.25
57102;BME280;42982;54.558;18.508;2023-11-19T18:57:37;100007.06;;;15.37;95.40
57102;BME280;42982;54.558;18.508;2023-11-19T18:58:41;99994.25;;;15.55;92.62
57102;BME280;42982;54.558;18.508;2023-11-19T18:59:43;100002.47;;;15.75;90.91
57102;BME280;42982;54.558;18.508;2023-11-19T19:00:47;99998.53;;;15.94;89.56
57102;BME280;42982;54.558;18.508;2023-11-19T19:01:51;99988.84;;;16.14;88.79
57102;BME280;42982;54.558;18.508;2023-11-19T19:02:53;99989.22;;;16.33;88.11
57102;BME280;42982;54.558;18.508;2023-11-19T19:03:59;99991.91;;;16.54;87.44
57102;BME280;42982;54.558;18.508;2023-11-19T19:05:01;99993.34;;;16.73;86.76
57102;BME280;42982;54.558;18.508;2023-11-19T19:06:02;99989.69;;;16.89;86.10
57102;BME280;42982;54.558;18.508;2023-11-19T19:07:05;99994.28;;;17.10;85.40
57102;BME280;42982;54.558;18.508;2023-11-19T19:08:08;99988.66;;;17.27;84.57
57102;BME280;42982;54.558;18.508;2023-11-19T19:09:10;99986.88;;;17.44;83.71
57102;BME280;42982;54.558;18.508;2023-11-19T19:10:12;99990.16;;;17.61;83.12
57102;BME280;42982;54.558;18.508;2023-11-19T19:11:15;99987.91;;;17.76;82.43
57102;BME280;42982;54.558;18.508;2023-11-19T19:12:20;99983.06;;;17.94;81.56
57102;BME280;42982;54.558;18.508;2023-11-19T19:13:23;99990.50;;;18.09;80.82
57102;BME280;42982;54.558;18.508;2023-11-19T19:14:25;99985.03;;;18.21;80.02
57102;BME280;42982;54.558;18.508;2023-11-19T19:15:31;99981.59;;;18.37;79.44
57102;BME280;42982;54.558;18.508;2023-11-19T19:16:39;99976.13;;;18.49;78.89
57102;BME280;42982;54.558;18.508;2023-11-19T19:17:42;99981.97;;;18.63;78.08
57102;BME280;42982;54.558;18.508;2023-11-19T19:18:45;99981.94;;;18.75;77.32
57102;BME280;42982;54.558;18.508;2023-11-19T19:19:56;99981.88;;;18.88;76.54
57102;BME280;42982;54.558;18.508;2023-11-19T19:20:58;99973.56;;;18.96;76.01
57102;BME280;42982;54.558;18.508;2023-11-19T19:22:00;99978.16;;;19.08;75.33
57102;BME280;42982;54.558;18.508;2023-11-19T19:23:05;99976.06;;;19.17;74.71
57102;BME280;42982;54.558;18.508;2023-11-19T19:24:08;99978.69;;;19.30;74.32
57102;BME280;42982;54.558;18.508;2023-11-19T19:25:11;99973.88;;;19.39;73.69
57102;BME280;42982;54.558;18.508;2023-11-19T19:26:12;99969.00;;;19.48;72.79
57102;BME280;42982;54.558;18.508;2023-11-19T19:27:17;99968.03;;;19.56;72.23
57102;BME280;42982;54.558;18.508;2023-11-19T19:28:21;99975.72;;;19.66;71.95
57102;BME280;42982;54.558;18.508;2023-11-19T19:29:23;99974.03;;;19.78;71.08
57102;BME280;42982;54.558;18.508;2023-11-19T19:30:25;99975.75;;;19.86;70.49
57102;BME280;42982;54.558;18.508;2023-11-19T19:31:28;99972.06;;;19.94;69.89
57102;BME280;42982;54.558;18.508;2023-11-19T19:32:31;99962.91;;;20.02;69.29
57102;BME280;42982;54.558;18.508;2023-11-19T19:33:33;99970.06;;;20.10;68.86
57102;BME280;42982;54.558;18.508;2023-11-19T19:34:34;99954.66;;;20.18;68.21
57102;BME280;42982;54.558;18.508;2023-11-19T19:35:40;99968.06;;;20.27;67.82
57102;BME280;42982;54.558;18.508;2023-11-19T19:36:44;99958.44;;;20.33;67.07
57102;BME280;42982;54.558;18.508;2023-11-19T19:37:48;99958.25;;;20.42;66.70
57102;BME280;42982;54.558;18.508;2023-11-19T19:38:52;99963.50;;;20.50;65.99
57102;BME280;42982;54.558;18.508;2023-11-19T19:40:01;99960.94;;;20.57;65.77
57102;BME280;42982;54.558;18.508;2023-11-19T19:41:06;99961.88;;;20.65;64.92
57102;BME280;42982;54.558;18.508;2023-11-19T19:42:11;99961.22;;;20.72;64.38
57102;BME280;42982;54.558;18.508;2023-11-19T19:43:13;99956.66;;;20.79;63.96
57102;BME280;42982;54.558;18.508;2023-11-19T19:44:21;99967.38;;;20.88;63.60
57102;BME280;42982;54.558;18.508;2023-11-19T19:45:26;99962.41;;;20.94;63.15
57102;BME280;42982;54.558;18.508;2023-11-19T19:46:32;99963.69;;;21.00;62.61
57102;BME280;42982;54.558;18.508;2023-11-19T19:47:35;99964.16;;;21.05;62.18
57102;BME280;42982;54.558;18.508;2023-11-19T19:48:41;99971.34;;;21.14;61.73
57102;BME280;42982;54.558;18.508;2023-11-19T19:49:43;99966.00;;;21.21;61.38
57102;BME280;42982;54.558;18.508;2023-11-19T19:50:46;99952.81;;;21.26;60.93
57102;BME280;42982;54.558;18.508;2023-11-19T19:51:52;99967.75;;;21.33;60.60
57102;BME280;42982;54.558;18.508;2023-11-19T19:52:54;99964.75;;;21.38;60.16
57102;BME280;42982;54.558;18.508;2023-11-19T19:53:58;99971.50;;;21.44;59.77
57102;BME280;42982;54.558;18.508;2023-11-19T19:55:00;99968.44;;;21.49;59.35
57102;BME280;42982;54.558;18.508;2023-11-19T19:56:03;99974.41;;;21.55;59.10
57102;BME280;42982;54.558;18.508;2023-11-19T19:57:06;99969.03;;;21.62;58.70
57102;BME280;42982;54.558;18.508;2023-11-19T19:58:08;99957.34;;;21.65;58.37
57102;BME280;42982;54.558;18.508;2023-11-19T19:59:15;99966.81;;;21.71;58.27
57102;BME280;42982;54.558;18.508;2023-11-19T20:00:17;99972.41;;;21.78;58.00
57102;BME280;42982;54.558;18.508;2023-11-19T20:01:25;99970.91;;;21.84;57.90
57102;BME280;42982;54.558;18.508;2023-11-19T20:02:27;99960.84;;;21.88;57.58
57102;BME280;42982;54.558;18.508;2023-11-19T20:03:31;99964.03;;;21.94;57.33
57102;BME280;42982;54.558;18.508;2023-11-19T20:04:33;99968.41;;;21.98;57.13
57102;BME280;42982;54.558;18.508;2023-11-19T20:05:40;99963.41;;;22.04;56.92
57102;BME280;42982;54.558;18.508;2023-11-19T20:06:42;99960.72;;;22.08;56.70
57102;BME280;42982;54.558;18.508;2023-11-19T20:07:46;99966.22;;;22.11;56.25
57102;BME280;42982;54.558;18.508;2023-11-19T20:08:53;99962.03;;;22.17;56.10
57102;BME280;42982;54.558;18.508;2023-11-19T20:09:57;99953.09;;;22.20;56.00
57102;BME280;42982;54.558;18.508;2023-11-19T20:10:59;99963.69;;;22.26;55.67
57102;BME280;42982;54.558;18.508;2023-11-19T20:12:02;99957.44;;;22.25;55.33
57102;BME280;42982;54.558;18.508;2023-11-19T20:13:04;99966.91;;;22.31;55.32
57102;BME280;42982;54.558;18.508;2023-11-19T20:14:12;99965.41;;;22.37;55.00
57102;BME280;42982;54.558;18.508;2023-11-19T20:15:15;99952.13;;;22.39;54.93
57102;BME280;42982;54.558;18.508;2023-11-19T20:16:21;99954.53;;;22.44;54.68
57102;BME280;42982;54.558;18.508;2023-11-19T20:17:23;99963.97;;;22.47;54.63
57102;BME280;42982;54.558;18.508;2023-11-19T20:18:27;99956.94;;;22.50;54.46
57102;BME280;42982;54.558;18.508;2023-11-19T20:19:31;99957.78;;;22.54;54.01
57102;BME280;42982;54.558;18.508;2023-11-19T20:20:35;99957.84;;;22.57;54.00
57102;BME280;42982;54.558;18.508;2023-11-19T20:21:39;99952.75;;;22.59;53.88
57102;BME280;42982;54.558;18.508;2023-11-19T20:22:42;99962.19;;;22.62;53.84
57102;BME280;42982;54.558;18.508;2023-11-19T20:23:43;99957.91;;;22.64;53.61
57102;BME280;42982;54.558;18.508;2023-11-19T20:24:46;99959.50;;;22.69;53.24
57102;BME280;42982;54.558;18.508;2023-11-19T20:25:48;99966.97;;;22.72;53.22
57102;BME280;42982;54.558;18.508;2023-11-19T20:26:50;99954.88;;;22.73;53.19
57102;BME280;42982;54.558;18.508;2023-11-19T20:27:55;99957.25;;;22.78;53.00
57102;BME280;42982;54.558;18.508;2023-11-19T20:28:57;99958.88;;;22.79;52.81
57102;BME280;42982;54.558;18.508;2023-11-19T20:29:59;99954.19;;;22.83;52.82
57102;BME280;42982;54.558;18.508;2023-11-19T20:31:01;99958.16;;;22.86;52.50
57102;BME280;42982;54.558;18.508;2023-11-19T20:32:05;99952.69;;;22.89;52.41
57102;BME280;42982;54.558;18.508;2023-11-19T20:33:12;99958.97;;;22.90;52.11
57102;BME280;42982;54.558;18.508;2023-11-19T20:34:13;99948.06;;;22.94;52.10
57102;BME280;42982;54.558;18.508;2023-11-19T20:35:17;99948.78;;;22.90;51.85
57102;BME280;42982;54.558;18.508;2023-11-19T20:36:20;99955.94;;;22.99;51.72
57102;BME280;42982;54.558;18.508;2023-11-19T20:37:23;99952.03;;;23.00;51.35
57102;BME280;42982;54.558;18.508;2023-11-19T20:38:26;99949.72;;;23.02;51.23
57102;BME280;42982;54.558;18.508;2023-11-19T20:39:30;99954.44;;;23.05;51.30
57102;BME280;42982;54.558;18.508;2023-11-19T20:40:31;99950.88;;;23.04;50.93
57102;BME280;42982;54.558;18.508;2023-11-19T20:41:32;99948.19;;;23.08;50.71
57102;BME280;42982;54.558;18.508;2023-11-19T20:42:37;99940.34;;;23.06;50.72
57102;BME280;42982;54.558;18.508;2023-11-19T20:43:39;99943.94;;;23.14;50.29
57102;BME280;42982;54.558;18.508;2023-11-19T20:44:41;99950.22;;;23.15;50.25
57102;BME280;42982;54.558;18.508;2023-11-19T20:45:46;99944.34;;;23.16;50.13
57102;BME280;42982;54.558;18.508;2023-11-19T20:46:47;99948.28;;;23.19;49.98
57102;BME280;42982;54.558;18.508;2023-11-19T20:47:53;99941.63;;;23.20;49.78
57102;BME280;42982;54.558;18.508;2023-11-19T20:48:54;99939.66;;;23.20;49.46
57102;BME280;42982;54.558;18.508;2023-11-19T20:49:56;99938.13;;;23.23;49.12
57102;BME280;42982;54.558;18.508;2023-11-19T20:51:00;99943.25;;;23.24;49.08
57102;BME280;42982;54.558;18.508;2023-11-19T20:52:03;99931.09;;;23.25;48.94
57102;BME280;42982;54.558;18.508;2023-11-19T20:53:05;99932.66;;;23.26;48.79
57102;BME280;42982;54.558;18.508;2023-11-19T20:54:09;99934.25;;;23.27;48.80
57102;BME280;42982;54.558;18.508;2023-11-19T20:55:11;99939.75;;;23.27;46.81
57102;BME280;42982;54.558;18.508;2023-11-19T20:57:10;99938.16;;;23.26;47.28
57102;BME280;42982;54.558;18.508;2023-11-19T20:58:13;99930.69;;;23.23;47.34
57102;BME280;42982;54.558;18.508;2023-11-19T20:59:15;99935.41;;;23.26;47.20
57102;BME280;42982;54.558;18.508;2023-11-19T21:00:20;99937.38;;;23.26;47.06
57102;BME280;42982;54.558;18.508;2023-11-19T21:01:21;99935.81;;;23.25;47.07
57102;BME280;42982;54.558;18.508;2023-11-19T21:02:24;99934.25;;;23.24;47.01
57102;BME280;42982;54.558;18.508;2023-11-19T21:03:32;99929.50;;;23.21;47.15
57102;BME280;42982;54.558;18.508;2023-11-19T21:04:38;99927.16;;;23.23;47.12
57102;BME280;42982;54.558;18.508;2023-11-19T21:05:40;99934.59;;;23.22;47.02
57102;BME280;42982;54.558;18.508;2023-11-19T21:06:42;99935.78;;;23.21;46.93
57102;BME280;42982;54.558;18.508;2023-11-19T21:07:45;99928.31;;;23.18;47.04
57102;BME280;42982;54.558;18.508;2023-11-19T21:08:46;99931.81;;;23.19;47.21
57102;BME280;42982;54.558;18.508;2023-11-19T21:09:48;99929.09;;;23.19;47.27
57102;BME280;42982;54.558;18.508;2023-11-19T21:10:50;99924.00;;;23.17;47.15
57102;BME280;42982;54.558;18.508;2023-11-19T21:11:52;99932.63;;;23.19;47.24
57102;BME280;42982;54.558;18.508;2023-11-19T21:12:54;99935.34;;;23.19;47.10
57102;BME280;42982;54.558;18.508;2023-11-19T21:13:56;99932.63;;;23.19;47.18
57102;BME280;42982;54.558;18.508;2023-11-19T21:14:58;99933.41;;;23.20;46.98
57102;BME280;42982;54.558;18.508;2023-11-19T21:16:02;99927.13;;;23.19;47.12
57102;BME280;42982;54.558;18.508;2023-11-19T21:17:04;99935.75;;;23.18;47.05
57102;BME280;42982;54.558;18.508;2023-11-19T21:18:06;99932.63;;;23.19;46.92
57102;BME280;42982;54.558;18.508;2023-11-19T21:19:12;99932.63;;;23.19;46.70
57102;BME280;42982;54.558;18.508;2023-11-19T21:20:14;99938.09;;;23.19;46.56
57102;BME280;42982;54.558;18.508;2023-11-19T21:21:16;99931.44;;;23.20;46.43
57102;BME280;42982;54.558;18.508;2023-11-19T21:22:18;99933.41;;;23.20;46.21
57102;BME280;42982;54.558;18.508;2023-11-19T21:23:21;99933.03;;;23.21;46.11
57102;BME280;42982;54.558;18.508;2023-11-19T21:24:23;99939.31;;;23.22;46.39
57102;BME280;42982;54.558;18.508;2023-11-19T21:25:24;99930.28;;;23.21;46.25
57102;BME280;42982;54.558;18.508;2023-11-19T21:26:26;99924.81;;;23.21;46.29
57102;BME280;42982;54.558;18.508;2023-11-19T21:27:29;99938.91;;;23.23;46.47
57102;BME280;42982;54.558;18.508;2023-11-19T21:28:30;99935.03;;;23.24;46.37
57102;BME280;42982;54.558;18.508;2023-11-19T21:29:34;99934.25;;;23.24;46.30
57102;BME280;42982;54.558;18.508;2023-11-19T21:30:35;99931.88;;;23.26;46.48
57102;BME280;42982;54.558;18.508;2023-11-19T21:31:39;99935.81;;;23.28;46.34
57102;BME280;42982;54.558;18.508;2023-11-19T21:32:41;99926.41;;;23.29;46.44
57102;BME280;42982;54.558;18.508;2023-11-19T21:33:42;99928.00;;;23.30;46.27
57102;BME280;42982;54.558;18.508;2023-11-19T21:34:43;99928.78;;;23.31;46.11
57102;BME280;42982;54.558;18.508;2023-11-19T21:35:45;99929.59;;;23.31;46.09
57102;BME280;42982;54.558;18.508;2023-11-19T21:36:47;99924.88;;;23.32;45.91
57102;BME280;42982;54.558;18.508;2023-11-19T21:37:48;99927.25;;;23.33;46.00
57102;BME280;42982;54.558;18.508;2023-11-19T21:38:52;99927.66;;;23.35;46.08
57102;BME280;42982;54.558;18.508;2023-11-19T21:39:57;99922.16;;;23.35;45.83
57102;BME280;42982;54.558;18.508;2023-11-19T21:41:03;99923.75;;;23.36;45.98
57102;BME280;42982;54.558;18.508;2023-11-19T21:42:09;99929.63;;;23.39;45.77
57102;BME280;42982;54.558;18.508;2023-11-19T21:43:11;99926.88;;;23.39;45.96
57102;BME280;42982;54.558;18.508;2023-11-19T21:44:12;99931.22;;;23.40;45.71
57102;BME280;42982;54.558;18.508;2023-11-19T21:45:16;99921.03;;;23.40;45.52
57102;BME280;42982;54.558;18.508;2023-11-19T21:46:18;99915.16;;;23.42;45.49
57102;BME280;42982;54.558;18.508;2023-11-19T21:47:21;99917.91;;;23.42;45.81
57102;BME280;42982;54.558;18.508;2023-11-19T21:48:23;99921.41;;;23.42;45.57
57102;BME280;42982;54.558;18.508;2023-11-19T21:49:27;99915.56;;;23.44;45.76
57102;BME280;42982;54.558;18.508;2023-11-19T21:50:29;99913.59;;;23.44;45.67
57102;BME280;42982;54.558;18.508;2023-11-19T21:51:31;99915.16;;;23.45;45.78
57102;BME280;42982;54.558;18.508;2023-11-19T21:52:33;99914.81;;;23.47;45.76
57102;BME280;42982;54.558;18.508;2023-11-19T21:53:38;99917.97;;;23.49;45.62
57102;BME280;42982;54.558;18.508;2023-11-19T21:54:41;99925.03;;;23.50;45.84
57102;BME280;42982;54.558;18.508;2023-11-19T21:55:42;99922.28;;;23.50;45.73
57102;BME280;42982;54.558;18.508;2023-11-19T21:56:43;99919.94;;;23.52;45.80
57102;BME280;42982;54.558;18.508;2023-11-19T21:57:45;99917.59;;;23.54;45.80
57102;BME280;42982;54.558;18.508;2023-11-19T21:58:47;99916.44;;;23.55;45.80
57102;BME280;42982;54.558;18.508;2023-11-19T21:59:48;99912.53;;;23.56;45.42
57102;BME280;42982;54.558;18.508;2023-11-19T22:00:50;99912.53;;;23.56;45.61
57102;BME280;42982;54.558;18.508;2023-11-19T22:01:52;99921.13;;;23.58;45.38
57102;BME280;42982;54.558;18.508;2023-11-19T22:02:54;99924.31;;;23.60;45.50
57102;BME280;42982;54.558;18.508;2023-11-19T22:03:55;99914.09;;;23.60;45.33
57102;BME280;42982;54.558;18.508;2023-11-19T22:05:02;99917.25;;;23.63;45.32
57102;BME280;42982;54.558;18.508;2023-11-19T22:06:04;99911.78;;;23.63;45.51
57102;BME280;42982;54.558;18.508;2023-11-19T22:07:06;99916.88;;;23.64;45.45
57102;BME280;42982;54.558;18.508;2023-11-19T22:08:08;99914.94;;;23.65;45.34
57102;BME280;42982;54.558;18.508;2023-11-19T22:09:15;99916.50;;;23.66;45.27
57102;BME280;42982;54.558;18.508;2023-11-19T22:10:17;99911.78;;;23.66;45.03
57102;BME280;42982;54.558;18.508;2023-11-19T22:11:19;99909.03;;;23.66;44.90
57102;BME280;42982;54.558;18.508;2023-11-19T22:12:21;99907.88;;;23.67;44.65
57102;BME280;42982;54.558;18.508;2023-11-19T22:13:26;99913.34;;;23.67;45.13
57102;BME280;42982;54.558;18.508;2023-11-19T22:14:28;99913.81;;;23.69;44.76
57102;BME280;42982;54.558;18.508;2023-11-19T22:15:29;99910.22;;;23.65;44.59
57102;BME280;42982;54.558;18.508;2023-11-19T22:16:30;99917.31;;;23.70;44.78
57102;BME280;42982;54.558;18.508;2023-11-19T22:17:35;99913.44;;;23.71;44.72
57102;BME280;42982;54.558;18.508;2023-11-19T22:18:41;99913.44;;;23.71;44.95
57102;BME280;42982;54.558;18.508;2023-11-19T22:19:46;99908.72;;;23.71;44.71
57102;BME280;42982;54.558;18.508;2023-11-19T22:20:49;99917.75;;;23.72;44.84
57102;BME280;42982;54.558;18.508;2023-11-19T22:21:50;99909.13;;;23.73;44.78
57102;BME280;42982;54.558;18.508;2023-11-19T22:22:52;99901.66;;;23.74;44.80
57102;BME280;42982;54.558;18.508;2023-11-19T22:23:54;99906.00;;;23.75;44.50
57102;BME280;42982;54.558;18.508;2023-11-19T22:24:55;99906.78;;;23.75;44.67
57102;BME280;42982;54.558;18.508;2023-11-19T22:25:57;99913.84;;;23.76;44.65
57102;BME280;42982;54.558;18.508;2023-11-19T22:27:02;99902.47;;;23.74;44.71
57102;BME280;42982;54.558;18.508;2023-11-19T22:28:04;99920.53;;;23.79;44.72
57102;BME280;42982;54.558;18.508;2023-11-19T22:29:06;99918.19;;;23.77;44.65
57102;BME280;42982;54.558;18.508;2023-11-19T22:30:09;99915.44;;;23.81;44.34
57102;BME280;42982;54.558;18.508;2023-11-19T22:31:12;99923.28;;;23.82;44.55
57102;BME280;42982;54.558;18.508;2023-11-19T22:32:14;99915.06;;;23.82;44.39
57102;BME280;42982;54.558;18.508;2023-11-19T22:33:16;99921.31;;;23.83;44.31
57102;BME280;42982;54.558;18.508;2023-11-19T22:34:18;99919.38;;;23.84;44.38
57102;BME280;42982;54.558;18.508;2023-11-19T22:35:23;99915.47;;;23.85;44.31
57102;BME280;42982;54.558;18.508;2023-11-19T22:36:24;99916.66;;;23.84;44.07
57102;BME280;42982;54.558;18.508;2023-11-19T22:37:26;99918.22;;;23.85;44.14
57102;BME280;42982;54.558;18.508;2023-11-19T22:38:32;99922.50;;;23.86;44.06
57102;BME280;42982;54.558;18.508;2023-11-19T22:39:36;99913.13;;;23.87;44.16
57102;BME280;42982;54.558;18.508;2023-11-19T22:40:38;99910.38;;;23.87;43.93
57102;BME280;42982;54.558;18.508;2023-11-19T22:41:44;99908.03;;;23.89;44.04
57102;BME280;42982;54.558;18.508;2023-11-19T22:42:45;99908.03;;;23.89;44.25
57102;BME280;42982;54.558;18.508;2023-11-19T22:43:47;99908.03;;;23.89;44.04
57102;BME280;42982;54.558;18.508;2023-11-19T22:44:48;99906.47;;;23.91;44.00
57102;BME280;42982;54.558;18.508;2023-11-19T22:45:51;99904.50;;;23.92;44.18
57102;BME280;42982;54.558;18.508;2023-11-19T22:46:53;99901.75;;;23.92;43.97
57102;BME280;42982;54.558;18.508;2023-11-19T22:47:55;99897.06;;;23.92;43.73
57102;BME280;42982;54.558;18.508;2023-11-19T22:48:57;99903.31;;;23.93;43.92
57102;BME280;42982;54.558;18.508;2023-11-19T22:50:01;99899.81;;;23.92;43.77
57102;BME280;42982;54.558;18.508;2023-11-19T22:51:06;99900.22;;;23.94;43.70
57102;BME280;42982;54.558;18.508;2023-11-19T22:52:09;99901.78;;;23.95;43.79
57102;BME280;42982;54.558;18.508;2023-11-19T22:53:11;99895.50;;;23.95;43.92
57102;BME280;42982;54.558;18.508;2023-11-19T22:54:13;99891.56;;;23.96;43.78
57102;BME280;42982;54.558;18.508;2023-11-19T22:55:15;99894.31;;;23.96;43.75
57102;BME280;42982;54.558;18.508;2023-11-19T22:56:16;99890.44;;;23.97;43.71
57102;BME280;42982;54.558;18.508;2023-11-19T22:57:18;99892.78;;;23.98;43.88
57102;BME280;42982;54.558;18.508;2023-11-19T22:58:21;99893.56;;;23.99;43.97
57102;BME280;42982;54.558;18.508;2023-11-19T22:59:25;99897.09;;;23.99;43.86
57102;BME280;42982;54.558;18.508;2023-11-19T23:00:26;99888.88;;;23.99;43.79
57102;BME280;42982;54.558;18.508;2023-11-19T23:01:31;99892.41;;;24.00;43.83
57102;BME280;42982;54.558;18.508;2023-11-19T23:02:33;99888.47;;;24.01;43.79
57102;BME280;42982;54.558;18.508;2023-11-19T23:03:35;99905.38;;;24.03;43.96
57102;BME280;42982;54.558;18.508;2023-11-19T23:04:37;99903.75;;;24.02;43.87
57102;BME280;42982;54.558;18.508;2023-11-19T23:05:39;99909.66;;;24.04;43.78
57102;BME280;42982;54.558;18.508;2023-11-19T23:06:40;99900.25;;;24.05;44.03
57102;BME280;42982;54.558;18.508;2023-11-19T23:07:42;99906.94;;;24.08;44.04
57102;BME280;42982;54.558;18.508;2023-11-19T23:08:46;99901.06;;;24.09;43.91
57102;BME280;42982;54.558;18.508;2023-11-19T23:09:52;99900.28;;;24.09;44.05
57102;BME280;42982;54.558;18.508;2023-11-19T23:10:54;99914.41;;;24.11;43.95
57102;BME280;42982;54.558;18.508;2023-11-19T23:11:55;99911.28;;;24.12;43.96
57102;BME280;42982;54.558;18.508;2023-11-19T23:12:59;99907.34;;;24.13;44.03
57102;BME280;42982;54.558;18.508;2023-11-19T23:14:00;99906.19;;;24.14;43.64
57102;BME280;42982;54.558;18.508;2023-11-19T23:15:05;99912.09;;;24.16;43.64
57102;BME280;42982;54.558;18.508;2023-11-19T23:16:15;99908.94;;;24.18;43.41
57102;BME280;42982;54.558;18.508;2023-11-19T23:17:18;99902.66;;;24.17;43.45
57102;BME280;42982;54.558;18.508;2023-11-19T23:18:21;99906.19;;;24.18;43.70
57102;BME280;42982;54.558;18.508;2023-11-19T23:19:23;99905.81;;;24.19;43.70
57102;BME280;42982;54.558;18.508;2023-11-19T23:20:25;99912.50;;;24.18;43.62